Time;durP1;ratioP1;P1;durP2;ratioP2;P2;SDS_P1;SDS_P2;PMS_P1;PMS_P2;Temp;Humidity;BMP_temperature;BMP_pressure;BME280_temperature;BME280_humidity;BME280_pressure;Samples;Min_cycle;Max_cycle;Signal;HPM_P1;HPM_P2
2021/02/26 00:00:09;;;;;;;;;121.50;101.25;;;;;0.84;84.98;102369.00;3725272;37;18212;-59
2021/02/26 00:02:35;;;;;;;;;127.50;98.25;;;;;0.84;85.13;102360.16;3725229;37;18231;-59
2021/02/26 00:05:33;;;;;;;;;127.25;102.25;;;;;0.86;85.52;102356.47;3725395;38;18209;-58
2021/02/26 00:08:01;;;;;;;;;117.50;99.50;;;;;0.87;85.43;102349.34;3725014;37;18181;-58
2021/02/26 00:10:28;;;;;;;;;119.50;96.50;;;;;0.87;85.42;102347.53;3725304;38;18201;-59
2021/02/26 00:12:55;;;;;;;;;131.25;101.75;;;;;0.84;85.11;102336.16;3725167;37;18198;-58
2021/02/26 00:15:27;;;;;;;;;127.75;100.75;;;;;0.86;85.41;102339.59;3725501;38;18195;-59
2021/02/26 00:17:53;;;;;;;;;122.50;104.75;;;;;0.92;85.18;102340.16;3725428;37;18193;-59
2021/02/26 00:20:29;;;;;;;;;123.00;90.50;;;;;0.92;85.33;102328.63;3724928;37;18213;-59
2021/02/26 00:22:56;;;;;;;;;118.25;96.75;;;;;0.91;85.32;102322.44;3725429;37;18184;-59
2021/02/26 00:25:44;;;;;;;;;118.25;95.25;;;;;0.89;85.04;102318.13;3725506;38;18174;-57
2021/02/26 00:28:16;;;;;;;;;110.00;92.50;;;;;0.87;84.88;102312.88;3725072;37;18169;-58
2021/02/26 00:30:45;;;;;;;;;120.50;91.00;;;;;0.79;84.92;102312.41;3725380;38;18193;-57
2021/02/26 00:33:11;;;;;;;;;118.75;100.75;;;;;0.80;85.09;102311.47;3725256;37;18157;-57
2021/02/26 00:35:39;;;;;;;;;109.25;88.75;;;;;0.78;85.12;102308.00;3725417;38;18165;-60
2021/02/26 00:38:06;;;;;;;;;113.00;97.00;;;;;0.73;84.93;102310.03;3725286;38;18189;-58
2021/02/26 00:40:39;;;;;;;;;118.50;101.75;;;;;0.76;85.11;102311.69;3725277;37;18186;-58
2021/02/26 00:43:07;;;;;;;;;115.50;97.25;;;;;0.71;84.74;102298.59;3725803;37;18150;-59
2021/02/26 00:45:36;;;;;;;;;106.75;94.25;;;;;0.66;84.66;102295.31;3725490;37;18166;-57
2021/02/26 00:48:08;;;;;;;;;119.00;99.75;;;;;0.68;84.73;102292.56;3725350;37;18156;-59
2021/02/26 00:50:47;;;;;;;;;104.75;88.25;;;;;0.68;84.91;102285.44;3725383;38;18175;-58
2021/02/26 00:53:13;;;;;;;;;96.75;78.00;;;;;0.67;84.99;102278.38;3725104;38;18145;-58
2021/02/26 00:55:41;;;;;;;;;117.50;92.00;;;;;0.69;84.70;102279.16;3725308;37;18150;-57
2021/02/26 00:58:07;;;;;;;;;118.25;96.75;;;;;0.73;84.93;102270.06;3724968;37;18131;-57
2021/02/26 01:00:49;;;;;;;;;103.50;79.00;;;;;0.75;84.82;102268.19;3724695;37;18154;-57
2021/02/26 01:03:35;;;;;;;;;122.25;99.75;;;;;0.80;85.12;102254.63;3724822;37;18156;-57
2021/02/26 01:06:05;;;;;;;;;122.50;98.00;;;;;0.82;85.06;102256.28;3725347;38;18113;-59
2021/02/26 01:08:32;;;;;;;;;100.00;82.50;;;;;0.81;84.97;102251.88;3725263;38;18113;-59
2021/02/26 01:10:58;;;;;;;;;110.00;96.25;;;;;0.69;84.80;102252.50;3725409;38;18150;-58
2021/02/26 01:13:26;;;;;;;;;116.50;96.75;;;;;0.70;84.66;102248.06;3725372;38;18129;-58
2021/02/26 01:15:53;;;;;;;;;97.50;71.25;;;;;0.68;84.87;102253.47;3725412;37;18131;-59
2021/02/26 01:18:24;;;;;;;;;103.25;90.75;;;;;0.66;84.57;102242.00;3725497;38;18115;-59
2021/02/26 01:20:52;;;;;;;;;121.00;97.00;;;;;0.54;84.31;102248.81;3725611;37;18143;-59
2021/02/26 01:23:19;;;;;;;;;103.50;89.50;;;;;0.44;84.62;102233.41;3725177;38;18120;-58
2021/02/26 01:25:46;;;;;;;;;110.75;88.50;;;;;0.50;84.76;102241.09;3725217;38;18111;-60
2021/02/26 01:28:12;;;;;;;;;119.00;88.00;;;;;0.51;84.55;102240.16;3725245;37;18089;-58
2021/02/26 01:30:40;;;;;;;;;116.25;91.50;;;;;0.48;84.77;102235.00;3724909;37;18113;-58
2021/02/26 01:33:08;;;;;;;;;108.00;88.75;;;;;0.28;84.45;102215.53;3724782;38;18104;-57
2021/02/26 01:35:37;;;;;;;;;106.25;84.75;;;;;0.35;84.64;102229.41;3724882;38;18090;-58
2021/02/26 01:38:05;;;;;;;;;104.75;81.00;;;;;0.26;84.54;102222.75;3725458;38;18091;-58
2021/02/26 01:40:34;;;;;;;;;101.25;82.00;;;;;0.28;84.78;102236.84;3725215;37;18088;-59
2021/02/26 01:43:01;;;;;;;;;100.50;85.75;;;;;0.23;84.76;102230.88;3725403;38;18079;-60
2021/02/26 01:45:30;;;;;;;;;103.00;83.50;;;;;0.18;84.87;102232.06;3725373;38;18097;-58
2021/02/26 01:48:03;;;;;;;;;99.25;77.00;;;;;0.17;84.73;102231.19;3725223;37;18087;-59
2021/02/26 01:50:32;;;;;;;;;104.75;83.50;;;;;0.12;84.49;102232.34;3725232;37;18068;-58
2021/02/26 01:53:11;;;;;;;;;100.75;85.00;;;;;0.04;84.76;102226.53;3725021;37;18090;-58
2021/02/26 01:55:38;;;;;;;;;102.00;83.00;;;;;-0.02;84.56;102241.91;3725380;37;18088;-59
2021/02/26 01:58:05;;;;;;;;;101.75;82.25;;;;;-0.11;84.50;102249.47;3725448;38;18070;-58
2021/02/26 02:00:32;;;;;;;;;101.25;80.50;;;;;-0.30;84.76;102244.16;3725170;37;18055;-58
2021/02/26 02:02:58;;;;;;;;;108.50;82.00;;;;;-0.28;85.20;102244.94;3725251;38;18045;-57
2021/02/26 02:05:25;;;;;;;;;102.75;82.50;;;;;-0.32;85.18;102234.50;3725298;38;18050;-57
2021/02/26 02:07:52;;;;;;;;;98.25;79.50;;;;;-0.26;85.29;102245.72;3725265;37;18038;-57
2021/02/26 02:10:21;;;;;;;;;113.50;87.25;;;;;-0.27;85.44;102243.13;3725377;37;18062;-58
2021/02/26 02:12:49;;;;;;;;;109.75;90.00;;;;;-0.34;85.13;102238.09;3724902;37;18053;-58
2021/02/26 02:15:21;;;;;;;;;104.00;82.50;;;;;-0.38;85.18;102241.84;3725270;38;18050;-57
2021/02/26 02:18:01;;;;;;;;;85.75;71.00;;;;;-0.42;85.50;102234.94;3725352;37;18033;-59
2021/02/26 02:20:29;;;;;;;;;108.00;86.75;;;;;-0.52;85.46;102244.28;3725355;37;18045;-58
2021/02/26 02:23:10;;;;;;;;;95.25;68.25;;;;;-0.55;85.58;102246.25;3725205;38;18033;-58
2021/02/26 02:25:36;;;;;;;;;106.75;91.75;;;;;-0.54;85.61;102246.19;3725143;37;18027;-57
2021/02/26 02:28:04;;;;;;;;;108.25;87.75;;;;;-0.51;85.57;102242.50;3725165;38;18028;-58
2021/02/26 02:30:34;;;;;;;;;103.50;86.25;;;;;-0.53;85.65;102242.59;3724854;37;18005;-58
2021/02/26 02:33:01;;;;;;;;;106.25;82.00;;;;;-0.51;86.07;102250.47;3725167;38;17997;-58
2021/02/26 02:35:30;;;;;;;;;104.25;84.50;;;;;-0.57;85.80;102242.81;3724967;37;18002;-58
2021/02/26 02:37:57;;;;;;;;;86.00;65.75;;;;;-0.61;85.92;102242.06;3725416;38;17998;-59
2021/02/26 02:40:24;;;;;;;;;102.50;78.75;;;;;-0.58;85.94;102236.63;3725402;37;18023;-57
2021/02/26 02:42:59;;;;;;;;;107.75;87.25;;;;;-0.57;86.26;102238.34;3725215;37;17994;-58
2021/02/26 02:45:31;;;;;;;;;100.00;73.25;;;;;-0.59;86.12;102247.31;3726786;37;18004;-58
2021/02/26 02:48:01;;;;;;;;;96.25;74.00;;;;;-0.60;86.43;102249.12;3727913;37;18000;-57
2021/02/26 02:50:30;;;;;;;;;102.50;79.50;;;;;-0.61;86.44;102241.22;3727670;37;17979;-58
2021/02/26 02:52:56;;;;;;;;;102.75;81.25;;;;;-0.60;86.30;102240.28;3727879;37;17995;-58
2021/02/26 02:55:28;;;;;;;;;95.50;76.25;;;;;-0.61;86.39;102236.75;3728793;38;17980;-57
2021/02/26 02:57:56;;;;;;;;;94.75;74.25;;;;;-0.65;86.50;102232.50;3728340;37;17988;-58
2021/02/26 03:00:48;;;;;;;;;101.00;71.75;;;;;-0.64;86.40;102236.03;3728785;38;18002;-58
2021/02/26 03:03:19;;;;;;;;;98.00;70.75;;;;;-0.59;86.59;102237.56;3728663;38;17994;-56
2021/02/26 03:05:47;;;;;;;;;99.75;77.25;;;;;-0.58;86.34;102244.59;3726975;38;17996;-58
2021/02/26 03:08:20;;;;;;;;;98.00;77.50;;;;;-0.71;86.54;102233.66;3725323;38;17977;-59
2021/02/26 03:10:47;;;;;;;;;82.50;61.50;;;;;-0.62;86.47;102239.50;3725194;38;17957;-57
2021/02/26 03:13:20;;;;;;;;;95.50;72.25;;;;;-0.55;86.68;102232.97;3725421;37;17984;-58
2021/02/26 03:15:52;;;;;;;;;97.50;74.50;;;;;-0.54;86.58;102227.56;3725294;37;17968;-58
2021/02/26 03:18:20;;;;;;;;;100.75;75.50;;;;;-0.62;86.61;102235.03;3725477;38;17970;-57
2021/02/26 03:20:47;;;;;;;;;90.75;67.75;;;;;-0.67;86.24;102229.06;3725462;37;17975;-57
2021/02/26 03:23:16;;;;;;;;;99.75;71.50;;;;;-0.63;86.57;102227.13;3725303;37;17936;-57
2021/02/26 03:25:43;;;;;;;;;97.25;72.00;;;;;-0.65;86.40;102226.34;3725484;37;17970;-58
2021/02/26 03:28:11;;;;;;;;;101.75;74.50;;;;;-0.68;86.61;102214.91;3725263;37;17950;-59
2021/02/26 03:30:38;;;;;;;;;99.50;71.50;;;;;-0.63;86.65;102221.81;3725431;38;17927;-59
2021/02/26 03:33:06;;;;;;;;;95.50;74.25;;;;;-0.58;86.40;102225.12;3725369;37;17960;-58
2021/02/26 03:35:33;;;;;;;;;99.00;73.50;;;;;-0.63;86.36;102222.69;3725359;38;17950;-58
2021/02/26 03:37:59;;;;;;;;;83.75;65.00;;;;;-0.58;86.47;102223.31;3725360;37;17937;-59
2021/02/26 03:40:28;;;;;;;;;97.75;74.00;;;;;-0.55;86.42;102223.19;3725420;38;17945;-58
2021/02/26 03:42:58;;;;;;;;;104.25;78.00;;;;;-0.58;86.50;102211.81;3725442;37;17914;-59
2021/02/26 03:45:28;;;;;;;;;97.75;70.00;;;;;-0.64;86.58;102206.78;3725215;38;17942;-58
2021/02/26 03:47:55;;;;;;;;;99.00;73.00;;;;;-0.69;86.50;102213.19;3725156;37;17918;-59
2021/02/26 03:50:22;;;;;;;;;99.75;73.75;;;;;-0.67;86.49;102208.66;3725344;38;17921;-58
2021/02/26 03:52:50;;;;;;;;;100.25;79.00;;;;;-0.61;86.29;102211.97;3726015;37;17898;-58
2021/02/26 03:55:20;;;;;;;;;97.50;71.50;;;;;-0.63;86.37;102195.22;3726232;38;17894;-58
2021/02/26 03:57:47;;;;;;;;;104.50;75.00;;;;;-0.65;86.25;102203.28;3725317;37;17920;-58
2021/02/26 04:00:19;;;;;;;;;98.75;74.25;;;;;-0.65;86.20;102189.97;3725280;37;17916;-58
2021/02/26 04:02:45;;;;;;;;;101.25;76.75;;;;;-0.67;86.32;102186.53;3725523;38;17906;-58
2021/02/26 04:05:14;;;;;;;;;101.50;74.25;;;;;-0.71;86.22;102200.91;3725311;37;17880;-58
2021/02/26 04:07:42;;;;;;;;;89.75;65.25;;;;;-0.73;86.16;102197.44;3725344;37;17898;-57
2021/02/26 04:10:15;;;;;;;;;103.50;74.00;;;;;-0.81;86.12;102196.94;3725469;37;17904;-58
2021/02/26 04:12:44;;;;;;;;;101.25;73.25;;;;;-0.86;86.34;102197.13;3725500;37;17889;-58
2021/02/26 04:15:13;;;;;;;;;94.50;70.25;;;;;-0.85;86.54;102193.56;3725268;38;17875;-57
2021/02/26 04:17:40;;;;;;;;;97.50;73.75;;;;;-0.83;86.48;102194.34;3725372;37;17885;-58
2021/02/26 04:20:08;;;;;;;;;101.75;79.50;;;;;-0.82;86.48;102188.09;3725307;37;17869;-58
2021/02/26 04:22:35;;;;;;;;;101.25;74.50;;;;;-0.78;86.30;102178.19;3725424;38;17879;-59
2021/02/26 04:25:03;;;;;;;;;93.75;70.75;;;;;-0.70;86.35;102178.69;3725248;37;17885;-58
2021/02/26 04:27:30;;;;;;;;;98.75;75.75;;;;;-0.60;86.63;102181.78;3725302;38;17889;-58
2021/02/26 04:29:56;;;;;;;;;101.75;78.75;;;;;-0.56;86.53;102178.91;3725423;38;17861;-57
2021/02/26 04:32:23;;;;;;;;;108.00;83.75;;;;;-0.62;86.34;102188.97;3725303;38;17935;-57
2021/02/26 04:34:49;;;;;;;;;99.75;71.00;;;;;-0.73;86.04;102182.34;3725263;38;17891;-57
2021/02/26 04:37:16;;;;;;;;;92.25;67.00;;;;;-0.94;86.06;102180.69;3725425;37;17860;-57
2021/02/26 04:39:42;;;;;;;;;90.75;70.00;;;;;-0.96;86.28;102181.69;3725356;37;17856;-57
2021/02/26 04:42:08;;;;;;;;;94.00;69.00;;;;;-0.94;86.38;102175.38;3725383;38;17861;-59
2021/02/26 04:44:34;;;;;;;;;99.75;70.50;;;;;-0.86;86.44;102175.00;3725305;38;17840;-58
2021/02/26 04:47:03;;;;;;;;;93.00;70.00;;;;;-0.94;86.61;102140.81;3725349;38;17856;-58
2021/02/26 04:49:34;;;;;;;;;98.00;81.00;;;;;-0.63;86.53;102177.47;3725137;38;17847;-58
2021/02/26 04:52:01;;;;;;;;;103.75;80.00;;;;;-0.63;86.36;102179.28;3725165;37;17858;-57
2021/02/26 04:54:28;;;;;;;;;104.50;82.75;;;;;-0.65;86.26;102182.00;3725425;37;17859;-58
2021/02/26 04:56:54;;;;;;;;;103.75;81.50;;;;;-0.69;86.20;102177.75;3725327;38;17831;-60
2021/02/26 04:59:20;;;;;;;;;96.75;75.25;;;;;-0.71;86.09;102175.16;3725332;37;17822;-58
2021/02/26 05:01:46;;;;;;;;;96.75;75.50;;;;;-0.67;85.98;102184.72;3725480;37;17817;-59
2021/02/26 05:04:13;;;;;;;;;103.00;83.25;;;;;-0.71;85.87;102182.28;3725403;37;17846;-59
2021/02/26 05:06:40;;;;;;;;;102.50;76.75;;;;;-0.72;86.08;102177.91;3725481;38;17827;-58
2021/02/26 05:09:07;;;;;;;;;106.00;85.00;;;;;-0.71;85.82;102175.16;3725452;38;17733;-59
2021/02/26 05:11:33;;;;;;;;;99.75;80.00;;;;;-0.67;86.01;102183.88;3725279;37;17742;-58
2021/02/26 05:14:01;;;;;;;;;140.25;107.50;;;;;-0.63;86.01;102187.25;3725553;37;17747;-57
2021/02/26 05:16:28;;;;;;;;;127.50;103.75;;;;;-0.71;85.93;102188.47;3725417;38;17739;-58
2021/02/26 05:18:54;;;;;;;;;92.25;70.50;;;;;-0.85;85.74;102198.88;3725472;37;17730;-59
2021/02/26 05:21:20;;;;;;;;;92.25;66.75;;;;;-1.04;85.52;102196.19;3725386;37;17739;-58
2021/02/26 05:23:46;;;;;;;;;97.25;78.50;;;;;-1.09;85.81;102200.88;3725564;38;17726;-59
2021/02/26 05:26:12;;;;;;;;;99.50;68.50;;;;;-1.14;86.20;102194.03;3725627;37;17738;-60
2021/02/26 05:28:39;;;;;;;;;98.50;74.00;;;;;-1.04;86.38;102190.88;3725436;37;17762;-59
2021/02/26 05:31:05;;;;;;;;;99.50;73.00;;;;;-0.98;86.08;102192.37;3725522;37;17714;-59
2021/02/26 05:33:31;;;;;;;;;101.00;75.25;;;;;-0.98;85.91;102195.03;3725554;38;17733;-58
2021/02/26 05:35:57;;;;;;;;;101.75;82.25;;;;;-0.92;85.89;102189.44;3725661;38;17700;-60
2021/02/26 05:38:24;;;;;;;;;100.75;75.25;;;;;-0.93;86.27;102185.06;3725555;38;17705;-58
2021/02/26 05:40:50;;;;;;;;;101.50;74.50;;;;;-0.73;86.42;102189.47;3725891;38;17713;-60
2021/02/26 05:43:20;;;;;;;;;118.25;96.50;;;;;-0.64;86.27;102194.38;3725312;37;17689;-59
2021/02/26 05:45:48;;;;;;;;;120.50;99.75;;;;;-0.52;86.31;102199.06;3725658;37;17704;-59
2021/02/26 05:48:15;;;;;;;;;121.50;94.50;;;;;-0.41;86.36;102193.25;3725580;37;17732;-60
2021/02/26 05:50:44;;;;;;;;;161.25;122.75;;;;;-0.32;85.94;102191.94;3725254;38;17704;-59
2021/02/26 05:53:10;;;;;;;;;164.00;127.75;;;;;-0.29;86.16;102190.00;3725620;38;17708;-59
2021/02/26 05:55:38;;;;;;;;;127.00;101.50;;;;;-0.21;86.32;102193.16;3725517;38;17679;-58
2021/02/26 05:58:05;;;;;;;;;138.00;103.75;;;;;-0.16;86.08;102192.94;3725387;38;17670;-57
2021/02/26 06:00:31;;;;;;;;;144.00;120.75;;;;;-0.09;85.83;102200.56;3725621;37;17675;-58
2021/02/26 06:02:58;;;;;;;;;244.00;196.25;;;;;-0.07;85.82;102201.34;3725562;37;17661;-58
2021/02/26 06:05:25;;;;;;;;;152.75;127.75;;;;;-0.06;85.75;102200.41;3725614;37;17689;-59
2021/02/26 06:07:53;;;;;;;;;128.75;112.00;;;;;0.07;85.95;102203.28;3725313;37;17750;-58
2021/02/26 06:10:32;;;;;;;;;145.00;116.25;;;;;0.22;86.19;102207.84;3725267;37;17738;-58
2021/02/26 06:13:17;;;;;;;;;155.00;130.25;;;;;0.28;85.98;102204.03;3725500;37;17736;-58
2021/02/26 06:15:45;;;;;;;;;124.00;104.25;;;;;0.36;85.98;102199.19;3725058;38;17729;-59
2021/02/26 06:18:17;;;;;;;;;150.50;127.00;;;;;0.43;85.55;102195.28;3725444;37;17716;-58
2021/02/26 06:20:49;;;;;;;;;96.25;73.50;;;;;0.49;85.66;102194.97;3725449;38;17736;-58
2021/02/26 06:23:21;;;;;;;;;103.50;82.75;;;;;0.53;85.41;102193.81;3725483;37;17743;-58
2021/02/26 06:26:10;;;;;;;;;100.00;82.50;;;;;0.60;85.35;102184.56;3725339;37;17737;-59
2021/02/26 06:28:38;;;;;;;;;108.50;85.25;;;;;0.71;85.55;102189.34;3725229;37;17707;-63
2021/02/26 06:31:21;;;;;;;;;104.50;86.75;;;;;0.88;85.43;102189.31;3725381;38;17721;-57
2021/02/26 06:33:58;;;;;;;;;102.50;91.75;;;;;1.06;85.37;102197.25;3725432;38;17712;-58
2021/02/26 06:36:31;;;;;;;;;94.50;72.75;;;;;1.20;85.37;102195.56;3725359;37;17696;-59
2021/02/26 06:39:01;;;;;;;;;109.75;85.75;;;;;1.22;85.33;102201.69;3725707;37;17708;-57
2021/02/26 06:41:47;;;;;;;;;100.50;84.25;;;;;1.37;85.10;102205.34;3725397;37;17716;-60
2021/02/26 06:44:24;;;;;;;;;103.00;81.50;;;;;1.56;85.29;102206.00;3725490;38;17717;-58
2021/02/26 06:47:02;;;;;;;;;99.75;83.00;;;;;1.71;85.20;102206.09;3725497;37;17678;-59
2021/02/26 06:49:48;;;;;;;;;106.75;86.50;;;;;1.84;84.99;102199.13;3725359;37;17745;-57
2021/02/26 06:52:38;;;;;;;;;110.75;93.75;;;;;1.87;84.77;102207.81;3725523;37;17669;-61
2021/02/26 06:55:06;;;;;;;;;100.75;87.25;;;;;2.04;84.61;102201.53;3725496;37;17690;-58
2021/02/26 06:57:33;;;;;;;;;104.00;90.50;;;;;2.16;84.44;102197.25;3725186;38;17670;-57
2021/02/26 06:59:59;;;;;;;;;103.75;90.25;;;;;2.32;84.34;102193.59;3725217;38;17673;-58
2021/02/26 07:02:28;;;;;;;;;99.00;89.50;;;;;2.42;84.42;102182.37;3725136;37;17677;-57
2021/02/26 07:04:54;;;;;;;;;103.75;85.00;;;;;2.69;84.46;102186.03;3725494;37;17688;-58
2021/02/26 07:07:20;;;;;;;;;104.25;87.50;;;;;2.91;84.51;102183.78;3725429;38;17675;-57
2021/02/26 07:09:49;;;;;;;;;104.00;83.75;;;;;3.12;84.37;102176.22;3725390;38;17681;-59
2021/02/26 07:12:16;;;;;;;;;100.50;89.25;;;;;3.33;84.27;102171.34;3725490;38;17673;-58
2021/02/26 07:14:43;;;;;;;;;102.75;83.75;;;;;2.97;83.90;102067.53;3725361;37;17664;-63
2021/02/26 07:17:21;;;;;;;;;101.00;79.75;;;;;3.55;83.73;102123.50;3725465;37;17668;-58
2021/02/26 07:20:21;;;;;;;;;102.00;86.75;;;;;4.05;83.77;102163.97;3725406;37;17669;-56
2021/02/26 07:22:58;;;;;;;;;107.50;88.50;;;;;3.92;83.45;102105.84;3725361;38;17647;-56
2021/02/26 07:26:02;;;;;;;;;101.25;89.25;;;;;4.48;83.27;102160.09;3725362;37;17630;-57
2021/02/26 07:28:51;;;;;;;;;106.25;86.50;;;;;4.65;83.10;102135.66;3725229;37;17633;-59
2021/02/26 07:31:58;;;;;;;;;106.50;88.25;;;;;5.01;82.67;102165.34;3725329;38;17640;-56
2021/02/26 07:34:41;;;;;;;;;123.75;95.25;;;;;5.35;82.42;102155.72;3725447;38;17660;-58
2021/02/26 07:37:08;;;;;;;;;108.00;91.50;;;;;5.55;81.71;102152.47;3725497;38;17624;-57
2021/02/26 07:39:55;;;;;;;;;104.75;90.00;;;;;5.82;81.89;102157.59;3725417;37;17616;-57
2021/02/26 07:42:42;;;;;;;;;99.00;83.00;;;;;6.02;81.43;102154.31;3725439;37;17620;-58
2021/02/26 07:45:10;;;;;;;;;89.75;67.25;;;;;6.19;80.97;102140.47;3725403;38;17628;-56
2021/02/26 07:47:41;;;;;;;;;99.50;81.50;;;;;6.38;80.75;102155.19;3725493;38;17632;-56
2021/02/26 07:50:09;;;;;;;;;100.25;82.75;;;;;6.54;80.49;102150.34;3725454;37;17613;-57
2021/02/26 07:52:39;;;;;;;;;92.50;77.25;;;;;6.70;80.22;102140.09;3725530;38;17617;-57
2021/02/26 07:55:27;;;;;;;;;94.50;80.50;;;;;6.54;79.84;102085.78;3725477;37;17613;-56
2021/02/26 07:58:11;;;;;;;;;90.25;71.25;;;;;7.10;79.60;102145.03;3725384;38;18595;-59
2021/02/26 08:00:39;;;;;;;;;93.75;77.00;;;;;7.29;79.21;102146.09;3725318;37;17599;-58
2021/02/26 08:03:38;;;;;;;;;87.75;73.25;;;;;7.49;78.73;102143.62;3725394;38;17604;-59
2021/02/26 08:06:06;;;;;;;;;84.00;70.50;;;;;7.61;78.26;102140.78;3725553;38;18578;-58
2021/02/26 08:08:42;;;;;;;;;88.00;70.50;;;;;7.78;77.74;102139.41;3725408;37;18598;-57
2021/02/26 08:11:09;;;;;;;;;80.75;61.25;;;;;7.93;77.12;102129.16;3725513;37;18592;-58
2021/02/26 08:13:53;;;;;;;;;79.00;60.50;;;;;8.11;77.05;102129.47;3725555;38;21066;-60
2021/02/26 08:16:50;;;;;;;;;80.25;60.25;;;;;8.27;76.58;102125.34;3725505;37;21067;-59
2021/02/26 08:19:27;;;;;;;;;78.25;59.25;;;;;8.46;75.23;102118.41;3725541;37;21043;-58
2021/02/26 08:21:53;;;;;;;;;78.50;60.75;;;;;8.60;74.76;102109.97;3725440;38;21059;-59
2021/02/26 08:24:22;;;;;;;;;83.75;65.75;;;;;8.75;74.39;102119.44;3725415;37;21113;-60
2021/02/26 08:26:49;;;;;;;;;76.00;58.00;;;;;8.87;74.06;102109.38;3725463;37;21047;-58
2021/02/26 08:29:24;;;;;;;;;80.00;63.25;;;;;9.04;73.08;102113.31;3725295;38;21055;-60
2021/02/26 08:31:53;;;;;;;;;73.25;54.50;;;;;9.22;71.25;102122.47;3725428;37;18574;-59
2021/02/26 08:34:19;;;;;;;;;63.25;49.50;;;;;9.42;71.01;102116.12;3725131;38;21029;-59
2021/02/26 08:36:57;;;;;;;;;69.25;53.50;;;;;9.61;70.00;102105.38;3725339;37;21047;-58
2021/02/26 08:39:47;;;;;;;;;75.75;59.50;;;;;9.66;69.44;102090.56;3725337;38;21025;-60
2021/02/26 08:42:16;;;;;;;;;69.75;56.50;;;;;9.87;68.79;102112.94;3725389;38;21033;-59
2021/02/26 08:44:48;;;;;;;;;63.00;48.00;;;;;10.00;68.14;102102.69;3725255;37;21015;-59
2021/02/26 08:47:19;;;;;;;;;68.25;53.00;;;;;10.12;67.07;102097.97;3725366;37;21036;-57
2021/02/26 08:49:48;;;;;;;;;62.75;49.50;;;;;10.26;66.51;102103.84;3725311;38;20995;-58
2021/02/26 08:52:21;;;;;;;;;66.50;51.50;;;;;10.38;66.37;102103.69;3725465;37;21005;-59
2021/02/26 08:55:23;;;;;;;;;64.25;50.75;;;;;10.48;66.45;102086.41;3725311;38;21020;-60
2021/02/26 08:57:56;;;;;;;;;63.75;49.50;;;;;10.64;65.58;102095.78;3725412;37;20970;-60
2021/02/26 09:00:36;;;;;;;;;63.75;50.50;;;;;10.76;64.92;102092.78;3725294;38;20978;-60
2021/02/26 09:03:10;;;;;;;;;57.25;47.75;;;;;10.89;63.78;102100.56;3725349;38;20989;-58
2021/02/26 09:05:49;;;;;;;;;72.50;53.50;;;;;11.00;63.54;102108.50;3725285;38;20996;-60
2021/02/26 09:08:19;;;;;;;;;70.00;53.75;;;;;11.12;63.00;102103.75;3725551;37;20965;-58
2021/02/26 09:10:45;;;;;;;;;72.00;53.25;;;;;11.19;62.99;102100.28;3725438;38;20980;-57
2021/02/26 09:13:12;;;;;;;;;65.50;50.00;;;;;11.13;61.59;102087.34;3725612;38;20972;-58
2021/02/26 09:15:42;;;;;;;;;62.75;50.00;;;;;11.13;61.25;102095.47;3725322;37;20974;-59
2021/02/26 09:18:23;;;;;;;;;64.00;48.50;;;;;11.13;61.20;102081.06;3725337;37;20969;-59
2021/02/26 09:20:54;;;;;;;;;58.00;46.25;;;;;11.09;59.92;102091.34;3725451;37;20970;-59
2021/02/26 09:23:22;;;;;;;;;55.75;43.75;;;;;10.97;60.53;102084.41;3725229;37;20941;-58
2021/02/26 09:26:04;;;;;;;;;55.00;45.00;;;;;11.09;60.83;102069.66;3725271;37;20976;-60
2021/02/26 09:28:43;;;;;;;;;55.00;44.00;;;;;11.27;60.72;102083.28;3725380;38;20932;-57
2021/02/26 09:31:25;;;;;;;;;58.75;44.00;;;;;11.51;60.22;102080.81;3725448;37;20938;-58
2021/02/26 09:34:15;;;;;;;;;54.25;41.75;;;;;11.70;59.18;102085.25;3725466;38;20941;-59
2021/02/26 09:36:43;;;;;;;;;50.75;39.75;;;;;11.47;58.40;102081.28;3725404;37;20941;-58
2021/02/26 09:39:20;;;;;;;;;49.00;39.00;;;;;11.49;58.88;102068.41;3725430;38;20884;-59
2021/02/26 09:41:49;;;;;;;;;49.25;39.75;;;;;11.61;58.31;102068.06;3725676;37;20911;-60
2021/02/26 09:44:20;;;;;;;;;46.75;38.75;;;;;11.62;58.76;102060.78;3725218;38;20868;-59
2021/02/26 09:46:53;;;;;;;;;47.00;36.75;;;;;11.98;57.78;102058.94;3725305;37;20885;-59
2021/02/26 09:49:40;;;;;;;;;46.00;37.25;;;;;11.86;57.50;102057.50;3725379;37;20881;-61
2021/02/26 09:52:24;;;;;;;;;50.75;41.75;;;;;11.68;58.14;102043.87;3725417;38;20860;-58
2021/02/26 09:55:06;;;;;;;;;53.00;41.50;;;;;11.93;58.26;102043.16;3725511;38;20858;-58
2021/02/26 09:57:33;;;;;;;;;39.75;33.75;;;;;12.03;57.48;102042.19;3725495;37;20879;-58
2021/02/26 10:00:14;;;;;;;;;50.00;40.75;;;;;12.01;57.48;102033.34;3725470;38;20843;-58
2021/02/26 10:02:42;;;;;;;;;51.75;41.50;;;;;12.19;56.53;102026.03;3725575;38;20843;-58
2021/02/26 10:05:13;;;;;;;;;34.50;30.75;;;;;12.56;56.04;102023.03;3725508;37;20882;-58
2021/02/26 10:07:44;;;;;;;;;39.25;33.00;;;;;12.78;54.49;102017.06;3725398;38;20859;-59
2021/02/26 10:10:12;;;;;;;;;33.00;29.00;;;;;12.95;53.00;102008.97;3725493;37;20820;-59
2021/02/26 10:12:39;;;;;;;;;36.50;30.25;;;;;13.13;52.08;101993.41;3725382;37;20868;-58
2021/02/26 10:15:07;;;;;;;;;26.75;21.75;;;;;13.04;51.95;101992.50;3725229;38;20854;-59
2021/02/26 10:17:33;;;;;;;;;27.25;24.75;;;;;13.13;50.42;101994.25;3725249;37;20870;-58
2021/02/26 10:20:07;;;;;;;;;41.25;35.00;;;;;13.04;51.92;101984.34;3725355;38;20831;-60
2021/02/26 10:22:35;;;;;;;;;38.75;29.75;;;;;13.14;51.22;101981.50;3725541;37;20818;-60
2021/02/26 10:25:01;;;;;;;;;37.50;29.75;;;;;13.39;51.48;101977.00;3725260;37;20821;-57
2021/02/26 10:27:27;;;;;;;;;45.00;34.00;;;;;13.70;50.78;101969.03;3725353;37;20845;-58
2021/02/26 10:29:53;;;;;;;;;45.00;34.50;;;;;13.88;51.50;101964.28;3725375;37;20819;-59
2021/02/26 10:32:20;;;;;;;;;40.50;32.25;;;;;14.00;50.31;101959.34;3725460;37;20820;-59
2021/02/26 10:34:46;;;;;;;;;42.25;30.75;;;;;14.10;49.89;101952.66;3725484;37;20824;-60
2021/02/26 10:37:13;;;;;;;;;30.50;28.75;;;;;13.99;50.37;101952.19;3725456;37;20820;-58
2021/02/26 10:39:39;;;;;;;;;30.75;25.50;;;;;14.00;49.58;101951.16;3725369;37;20795;-57
2021/02/26 10:42:06;;;;;;;;;31.25;27.75;;;;;14.06;49.64;101932.25;3725433;38;20789;-58
2021/02/26 10:44:33;;;;;;;;;42.00;32.25;;;;;14.30;47.98;101934.06;3725530;37;20788;-58
2021/02/26 10:46:59;;;;;;;;;41.75;33.25;;;;;14.47;48.91;101924.87;3725418;37;20792;-59
2021/02/26 10:49:26;;;;;;;;;39.50;32.50;;;;;14.62;48.37;101924.09;3725567;38;20796;-59
2021/02/26 10:51:53;;;;;;;;;52.00;42.25;;;;;14.78;47.86;101922.16;3725590;38;20795;-60
2021/02/26 10:54:19;;;;;;;;;43.50;33.00;;;;;14.81;46.98;101913.62;3725558;37;20773;-60
2021/02/26 10:56:45;;;;;;;;;44.25;36.00;;;;;14.89;47.54;101916.31;3725166;38;20797;-58
2021/02/26 10:59:12;;;;;;;;;36.00;31.75;;;;;14.98;47.07;101916.28;3725042;37;20771;-57
2021/02/26 11:01:38;;;;;;;;;31.25;30.25;;;;;15.01;47.01;101913.19;3725359;37;20780;-59
2021/02/26 11:04:04;;;;;;;;;44.00;32.25;;;;;14.97;46.91;101904.50;3725256;38;20766;-58
2021/02/26 11:06:30;;;;;;;;;32.50;30.00;;;;;15.07;46.25;101907.87;3725452;37;20784;-60
2021/02/26 11:08:58;;;;;;;;;31.50;31.00;;;;;15.25;44.64;101902.09;3725176;38;20773;-58
2021/02/26 11:11:24;;;;;;;;;31.00;27.00;;;;;15.18;46.18;101896.50;3725336;37;20783;-58
2021/02/26 11:13:50;;;;;;;;;32.50;26.75;;;;;15.12;44.67;101880.03;3725411;37;20743;-60
2021/02/26 11:16:17;;;;;;;;;32.75;30.50;;;;;15.28;44.67;101885.38;3725271;37;20773;-60
2021/02/26 11:18:43;;;;;;;;;31.00;28.50;;;;;15.45;45.23;101886.09;3724941;38;20743;-60
2021/02/26 11:21:09;;;;;;;;;30.25;25.00;;;;;15.53;45.12;101875.09;3725244;37;20765;-57
2021/02/26 11:23:36;;;;;;;;;34.25;29.50;;;;;15.68;44.66;101881.47;3725309;37;20745;-58